createdAt,value
2019-01-21T00:01:49.449Z,71.07
2019-01-21T00:04:19.321Z,74.03
2019-01-21T00:06:49.194Z,84.83
2019-01-21T00:09:19.123Z,99.60
2019-01-21T00:11:49.143Z,87.97
2019-01-21T00:14:19.052Z,73.70
2019-01-21T00:16:49.417Z,124.80
2019-01-21T00:19:19.368Z,82.97
2019-01-21T00:21:49.311Z,79.90
2019-01-21T00:24:19.177Z,74.00
2019-01-21T00:26:49.131Z,83.07
2019-01-21T00:29:19.172Z,93.10
2019-01-21T00:31:49.027Z,92.07
2019-01-21T00:34:19.069Z,89.17
2019-01-21T00:36:48.917Z,87.07
2019-01-21T00:39:18.841Z,93.57
2019-01-21T00:41:48.789Z,98.97
2019-01-21T00:44:18.656Z,96.83
2019-01-21T00:46:48.594Z,97.47
2019-01-21T00:49:18.490Z,103.17
2019-01-21T00:51:48.446Z,147.03
2019-01-21T00:54:18.301Z,130.17
2019-01-21T00:56:48.159Z,129.13
2019-01-21T00:59:18.161Z,115.07
2019-01-21T01:01:48.300Z,113.50
2019-01-21T01:04:18.340Z,130.87
2019-01-21T01:06:48.235Z,120.17
2019-01-21T01:09:18.168Z,85.63
2019-01-21T01:11:48.049Z,133.93
2019-01-21T01:14:17.954Z,116.83
2019-01-21T01:16:47.938Z,106.70
2019-01-21T01:19:17.780Z,97.97
2019-01-21T01:21:47.761Z,104.20
2019-01-21T01:24:17.752Z,95.17
2019-01-21T01:26:47.735Z,79.00
2019-01-21T01:29:17.678Z,77.13
2019-01-21T01:31:47.744Z,115.10
2019-01-21T01:34:17.630Z,111.33
2019-01-21T01:36:47.494Z,78.63
2019-01-21T01:39:17.359Z,69.80
2019-01-21T01:41:47.248Z,87.53
2019-01-21T01:44:17.169Z,77.13
2019-01-21T01:46:47.463Z,79.00
2019-01-21T01:49:17.394Z,83.07
2019-01-21T01:51:47.357Z,69.27
2019-01-21T01:54:17.288Z,70.60
2019-01-21T01:56:47.159Z,80.77
2019-01-21T01:59:17.006Z,121.37
2019-01-21T02:01:46.893Z,96.33
2019-01-21T02:04:16.871Z,67.67
2019-01-21T02:06:46.843Z,83.93
2019-01-21T02:09:16.703Z,76.50
2019-01-21T02:11:46.631Z,68.20
2019-01-21T02:14:16.498Z,77.20
2019-01-21T02:16:46.462Z,78.23
2019-01-21T02:19:16.321Z,70.73
2019-01-21T02:21:46.209Z,76.87
2019-01-21T02:24:16.580Z,81.30
2019-01-21T02:26:55.493Z,82.57
2019-01-21T02:29:36.675Z,79.07
2019-01-21T02:32:23.123Z,77.83
2019-01-21T02:35:28.151Z,66.83
2019-01-21T02:38:31.255Z,79.10
2019-01-21T02:41:32.456Z,68.60
2019-01-21T02:44:13.890Z,74.77
2019-01-21T02:47:05.920Z,69.47
2019-01-21T02:50:04.084Z,65.30
2019-01-21T02:53:36.665Z,66.47
2019-01-21T02:56:23.010Z,65.10
2019-01-21T02:59:26.554Z,60.00
2019-01-21T03:02:52.916Z,68.27
2019-01-21T03:05:43.972Z,71.77
2019-01-21T03:08:56.980Z,64.00
2019-01-21T03:12:10.368Z,61.70
2019-01-21T03:15:10.635Z,62.47
2019-01-21T03:18:15.428Z,62.40
2019-01-21T03:21:32.762Z,63.13
2019-01-21T03:24:39.953Z,68.70
2019-01-21T03:28:02.336Z,57.70
2019-01-21T03:31:17.360Z,59.57
2019-01-21T03:34:21.324Z,71.40
2019-01-21T03:37:25.139Z,60.00
2019-01-21T03:40:38.416Z,63.23
2019-01-21T03:43:46.644Z,64.27
2019-01-21T03:47:09.174Z,72.20
2019-01-21T03:49:55.381Z,73.17
2019-01-21T03:52:50.811Z,72.53
2019-01-21T03:55:20.823Z,69.30
2019-01-21T03:58:50.445Z,59.40
2019-01-21T04:01:42.412Z,69.90
2019-01-21T04:04:35.410Z,60.83
2019-01-21T04:07:49.941Z,55.90
2019-01-21T04:11:02.671Z,61.50
2019-01-21T04:14:08.513Z,68.47
2019-01-21T04:17:14.993Z,66.83
2019-01-21T04:20:00.297Z,61.17
2019-01-21T04:22:50.516Z,56.43
2019-01-21T04:26:03.613Z,65.53
2019-01-21T04:28:45.384Z,63.53
2019-01-21T04:31:46.777Z,67.03
2019-01-21T04:34:58.604Z,60.50
2019-01-21T04:38:02.662Z,61.43
2019-01-21T04:41:06.339Z,62.00
2019-01-21T04:44:00.825Z,67.50
2019-01-21T04:46:52.551Z,62.90
2019-01-21T04:50:16.464Z,59.00
2019-01-21T04:53:12.235Z,63.13
2019-01-21T04:56:32.389Z,68.33
2019-01-21T04:59:49.403Z,70.93
2019-01-21T05:02:58.195Z,63.40
2019-01-21T05:05:49.036Z,60.40
2019-01-21T05:09:06.898Z,62.40
2019-01-21T05:12:04.543Z,66.83
2019-01-21T05:15:19.782Z,64.17
2019-01-21T05:18:41.330Z,73.90
2019-01-21T05:21:47.773Z,60.30
2019-01-21T05:24:51.843Z,59.10
2019-01-21T05:27:55.150Z,66.43
2019-01-21T05:31:06.333Z,70.70
2019-01-21T05:34:00.445Z,76.20
2019-01-21T05:37:08.360Z,72.07
2019-01-21T05:40:00.409Z,62.97
2019-01-21T05:42:53.845Z,68.07
2019-01-21T05:46:14.627Z,69.67
2019-01-21T05:49:14.869Z,71.13
2019-01-21T05:52:37.985Z,61.93
2019-01-21T05:55:50.191Z,76.53
2019-01-21T05:58:45.894Z,72.27
2019-01-21T06:01:51.159Z,80.00
2019-01-21T06:04:32.936Z,78.33
2019-01-21T06:07:50.814Z,79.17
2019-01-21T06:10:42.754Z,83.77
2019-01-21T06:13:49.877Z,71.00
2019-01-21T06:16:50.682Z,95.70
2019-01-21T06:19:57.449Z,83.20
2019-01-21T06:23:16.602Z,77.03
2019-01-21T06:26:39.863Z,70.17
2019-01-21T06:29:38.755Z,65.07
2019-01-21T06:32:32.709Z,71.07
2019-01-21T06:35:16.616Z,78.23
2019-01-21T06:38:11.448Z,69.23
2019-01-21T06:41:44.124Z,67.87
2019-01-21T06:44:56.833Z,71.93
2019-01-21T06:47:58.783Z,73.27
2019-01-21T06:51:05.920Z,77.40
2019-01-21T06:54:11.731Z,81.03
2019-01-21T06:57:21.505Z,83.03
2019-01-21T07:00:27.163Z,90.13
2019-01-21T07:03:33.524Z,86.50
2019-01-21T07:06:58.420Z,76.03
2019-01-21T07:10:18.869Z,70.87
2019-01-21T07:13:28.996Z,46.97
2019-01-21T07:16:29.220Z,67.00
2019-01-21T07:19:40.281Z,42.80
2019-01-21T07:22:43.294Z,55.30
2019-01-21T07:25:45.123Z,86.07
2019-01-21T07:29:05.269Z,73.80
2019-01-21T07:32:18.977Z,71.43
2019-01-21T07:35:18.696Z,79.10
2019-01-21T07:38:00.527Z,86.60
2019-01-21T07:41:27.347Z,82.10
2019-01-21T07:44:24.557Z,71.43
2019-01-21T07:47:28.752Z,66.37
2019-01-21T07:50:31.694Z,75.67
2019-01-21T07:53:37.896Z,67.90
2019-01-21T07:57:03.953Z,68.13
2019-01-21T08:00:05.418Z,74.53
2019-01-21T08:03:07.953Z,62.00
2019-01-21T08:06:04.396Z,68.37
2019-01-21T08:09:32.399Z,60.97
2019-01-21T08:12:40.883Z,66.30
2019-01-21T08:15:42.636Z,65.43
2019-01-21T08:18:58.370Z,64.57
2019-01-21T08:21:49.499Z,60.90
2019-01-21T08:24:44.136Z,62.37
2019-01-21T08:27:47.058Z,62.60
2019-01-21T08:30:54.527Z,62.13
2019-01-21T08:33:59.967Z,59.50
2019-01-21T08:36:49.928Z,65.20
2019-01-21T08:40:05.252Z,71.30
2019-01-21T08:42:49.086Z,57.27
2019-01-21T08:46:03.344Z,56.87
2019-01-21T08:49:18.378Z,55.17
2019-01-21T08:52:12.611Z,62.10
2019-01-21T08:55:32.970Z,60.70
2019-01-21T08:58:39.160Z,61.40
2019-01-21T09:01:45.807Z,64.17
2019-01-21T09:05:01.816Z,62.07
2019-01-21T09:07:55.355Z,64.53
2019-01-21T09:11:10.972Z,63.70
2019-01-21T09:13:54.925Z,65.10
2019-01-21T09:16:59.326Z,66.50
2019-01-21T09:20:16.247Z,54.10
2019-01-21T09:23:03.312Z,65.00
2019-01-21T09:25:55.363Z,62.20
2019-01-21T09:28:52.122Z,61.30
2019-01-21T09:31:37.755Z,63.93
2019-01-21T09:34:49.649Z,61.10
2019-01-21T09:38:04.415Z,59.30
2019-01-21T09:41:22.247Z,63.90
2019-01-21T09:43:58.230Z,61.57
2019-01-21T09:46:55.931Z,61.83
2019-01-21T09:49:24.563Z,65.10
2019-01-21T09:52:05.745Z,60.27
2019-01-21T09:54:39.889Z,65.10
2019-01-21T09:57:21.424Z,65.17
2019-01-21T09:59:56.835Z,57.57
2019-01-21T10:02:50.461Z,71.10
2019-01-21T10:05:20.533Z,63.07
2019-01-21T10:08:21.439Z,74.63
2019-01-21T10:11:32.808Z,57.27
2019-01-21T10:14:30.122Z,61.47
2019-01-21T10:17:12.966Z,53.27
2019-01-21T10:20:15.914Z,73.57
2019-01-21T10:23:48.625Z,49.40
2019-01-21T10:27:05.054Z,50.70
2019-01-21T10:30:05.340Z,50.63
2019-01-21T10:33:08.224Z,50.70
2019-01-21T10:36:18.470Z,64.43
2019-01-21T10:39:13.449Z,42.73
2019-01-21T10:42:14.937Z,46.40
2019-01-21T10:45:23.172Z,31.93
2019-01-21T10:48:21.243Z,52.73
2019-01-21T10:51:27.049Z,37.80
2019-01-21T10:54:16.520Z,34.00
2019-01-21T10:57:08.311Z,63.60
2019-01-21T11:00:15.918Z,64.90
2019-01-21T11:03:11.136Z,30.93
2019-01-21T11:06:34.835Z,39.37
2019-01-21T11:09:48.444Z,49.53
2019-01-21T11:13:15.601Z,51.17
2019-01-21T11:16:03.311Z,54.00
2019-01-21T11:19:09.197Z,55.37
2019-01-21T11:22:10.473Z,54.87
2019-01-21T11:25:02.643Z,63.03
2019-01-21T11:27:49.577Z,73.47
2019-01-21T11:30:44.526Z,56.57
2019-01-21T11:33:57.816Z,53.83
2019-01-21T11:37:09.401Z,58.80
2019-01-21T11:40:10.335Z,54.33
2019-01-21T11:43:16.607Z,62.83
2019-01-21T11:46:13.260Z,61.70
2019-01-21T11:49:18.623Z,57.10
2019-01-21T11:52:20.838Z,61.27
2019-01-21T11:55:28.231Z,52.57
2019-01-21T11:58:42.687Z,49.10
2019-01-21T12:01:49.355Z,48.80
2019-01-21T12:04:38.469Z,51.90
2019-01-21T12:07:36.734Z,45.57
2019-01-21T12:10:34.103Z,45.90
2019-01-21T12:14:00.706Z,59.97
2019-01-21T12:17:15.617Z,56.50
2019-01-21T12:20:17.033Z,52.37
2019-01-21T12:23:11.260Z,50.00
2019-01-21T12:25:47.474Z,54.50
2019-01-21T12:28:51.781Z,52.87
2019-01-21T12:31:48.395Z,55.13
2019-01-21T12:34:44.173Z,47.27
2019-01-21T12:37:30.952Z,43.73
2019-01-21T12:40:57.299Z,47.57
2019-01-21T12:44:17.647Z,47.93
2019-01-21T12:46:57.164Z,48.10
2019-01-21T12:50:13.457Z,49.93
2019-01-21T12:53:24.378Z,45.67
2019-01-21T12:56:46.178Z,48.30
2019-01-21T12:59:44.753Z,59.23
2019-01-21T13:02:34.525Z,45.70
2019-01-21T13:05:19.818Z,45.00
2019-01-21T13:08:15.633Z,52.13
2019-01-21T13:11:20.833Z,49.83
2019-01-21T13:14:14.132Z,49.20
2019-01-21T13:16:58.072Z,44.13
2019-01-21T13:19:53.127Z,44.03
2019-01-21T13:23:00.680Z,43.90
2019-01-21T13:25:57.444Z,45.33
2019-01-21T13:29:05.318Z,45.10
2019-01-21T13:32:19.499Z,47.40
2019-01-21T13:35:29.657Z,42.57
2019-01-21T13:38:13.940Z,41.90
2019-01-21T13:41:36.548Z,45.47
2019-01-21T13:45:03.105Z,42.57
2019-01-21T13:48:19.659Z,48.10
2019-01-21T13:51:19.699Z,42.67
2019-01-21T13:54:33.899Z,44.03
2019-01-21T13:57:15.237Z,48.53
2019-01-21T14:00:11.229Z,46.50
2019-01-21T14:03:27.886Z,45.03
2019-01-21T14:06:45.568Z,46.77
2019-01-21T14:09:50.490Z,41.60
2019-01-21T14:12:50.224Z,44.77
2019-01-21T14:15:58.364Z,47.17
2019-01-21T14:19:18.911Z,45.90
2019-01-21T14:22:25.492Z,44.37
2019-01-21T14:25:45.207Z,44.90
2019-01-21T14:29:03.668Z,43.43
2019-01-21T14:32:11.311Z,40.00
2019-01-21T14:35:30.749Z,49.47
2019-01-21T14:38:21.327Z,43.17
2019-01-21T14:41:57.276Z,42.43
2019-01-21T14:45:02.156Z,42.20
2019-01-21T14:48:18.425Z,47.73
2019-01-21T14:51:31.447Z,49.77
2019-01-21T14:54:55.621Z,46.40
2019-01-21T14:58:12.791Z,49.70
2019-01-21T15:01:04.088Z,49.27
2019-01-21T15:03:46.335Z,45.67
2019-01-21T15:10:15.000Z,50.23
2019-01-21T15:13:13.220Z,48.50
2019-01-21T15:16:30.964Z,42.73
2019-01-21T15:19:11.449Z,47.13
2019-01-21T15:22:23.692Z,44.93
2019-01-21T15:25:38.226Z,43.73
2019-01-21T15:29:00.072Z,45.80
2019-01-21T15:31:47.276Z,51.80
2019-01-21T15:34:47.695Z,52.60
2019-01-21T15:37:48.122Z,43.20
2019-01-21T15:40:57.653Z,45.37
2019-01-21T15:43:37.763Z,50.10
2019-01-21T15:46:47.170Z,49.17
2019-01-21T15:49:51.059Z,53.20
2019-01-21T15:52:36.803Z,51.37
2019-01-21T15:55:41.383Z,54.83
2019-01-21T15:58:32.099Z,54.73
2019-01-21T16:01:38.326Z,52.93
2019-01-21T16:04:24.712Z,57.63
2019-01-21T16:07:14.080Z,50.83
2019-01-21T16:10:06.585Z,47.03
2019-01-21T16:13:17.328Z,57.33
2019-01-21T16:16:49.917Z,44.00
2019-01-21T16:19:23.033Z,53.83
2019-01-21T16:22:36.219Z,51.10
2019-01-21T16:25:33.579Z,52.80
2019-01-21T16:28:27.933Z,51.27
2019-01-21T16:31:26.059Z,51.20
2019-01-21T16:34:35.897Z,57.90
2019-01-21T16:37:37.461Z,54.23
2019-01-21T16:40:36.128Z,51.60
2019-01-21T16:43:06.008Z,61.90
2019-01-21T16:45:35.968Z,57.43
2019-01-21T16:48:05.877Z,50.73
2019-01-21T16:50:35.873Z,50.57
2019-01-21T16:53:05.890Z,53.67
2019-01-21T16:55:35.838Z,54.87
2019-01-21T16:58:05.756Z,53.37
2019-01-21T17:00:35.712Z,49.53
2019-01-21T17:03:05.723Z,50.63
2019-01-21T17:05:35.758Z,47.07
2019-01-21T17:08:05.797Z,51.00
2019-01-21T17:10:39.333Z,51.90
2019-01-21T17:13:07.447Z,54.83
2019-01-21T17:15:37.340Z,57.93
2019-01-21T17:18:07.255Z,67.40
2019-01-21T17:20:37.149Z,55.07
2019-01-21T17:23:07.138Z,56.33
2019-01-21T17:25:37.254Z,57.20
2019-01-21T17:28:07.307Z,57.00
2019-01-21T17:30:37.177Z,48.73
2019-01-21T17:33:07.119Z,51.63
2019-01-21T17:35:37.078Z,55.03
2019-01-21T17:38:06.984Z,55.93
2019-01-21T17:40:36.866Z,62.07
2019-01-21T17:43:06.815Z,57.73
2019-01-21T17:45:36.875Z,55.13
2019-01-21T17:48:06.815Z,65.23
2019-01-21T17:50:36.806Z,56.20
2019-01-21T17:53:06.959Z,56.67
2019-01-21T17:55:37.119Z,66.03
2019-01-21T17:58:07.183Z,61.83
2019-01-21T18:00:37.287Z,182.50
2019-01-21T18:03:07.772Z,91.77
2019-01-21T18:05:37.684Z,55.40
2019-01-21T18:08:07.723Z,58.43
2019-01-21T18:10:37.752Z,61.13
2019-01-21T18:13:07.584Z,56.50
2019-01-21T18:15:37.652Z,60.20
2019-01-21T18:18:07.639Z,68.60
2019-01-21T18:20:37.527Z,55.53
2019-01-21T18:23:07.366Z,70.30
2019-01-21T18:25:37.324Z,60.27
2019-01-21T18:28:07.224Z,73.53
2019-01-21T18:30:37.194Z,70.07
2019-01-21T18:33:07.085Z,72.60
2019-01-21T18:35:36.989Z,79.93
2019-01-21T18:38:06.915Z,66.43
2019-01-21T18:40:36.960Z,73.67
2019-01-21T18:43:06.905Z,68.90
2019-01-21T18:45:36.856Z,80.27
2019-01-21T18:48:06.704Z,65.50
2019-01-21T18:50:36.590Z,73.03
2019-01-21T18:53:06.534Z,67.47
2019-01-21T18:55:36.476Z,59.53
2019-01-21T18:58:07.058Z,64.33
2019-01-21T19:00:37.126Z,63.90
2019-01-21T19:03:07.167Z,86.07
2019-01-21T19:05:37.257Z,106.70
2019-01-21T19:08:07.232Z,88.87
2019-01-21T19:10:37.172Z,87.03
2019-01-21T19:13:07.143Z,75.97
2019-01-21T19:15:37.071Z,73.83
2019-01-21T19:18:07.280Z,76.00
2019-01-21T19:20:37.235Z,78.87
2019-01-21T19:23:07.178Z,82.20
2019-01-21T19:25:37.075Z,78.00
2019-01-21T19:28:06.982Z,78.47
2019-01-21T19:30:37.053Z,77.77
2019-01-21T19:33:06.925Z,83.13
2019-01-21T19:35:38.352Z,65.13
2019-01-21T19:38:08.376Z,80.83
2019-01-21T19:40:38.388Z,62.97
2019-01-21T19:43:08.439Z,65.40
2019-01-21T19:45:38.515Z,69.47
2019-01-21T19:48:08.532Z,61.27
2019-01-21T19:50:38.540Z,72.43
2019-01-21T19:53:08.531Z,70.00
2019-01-21T19:55:40.747Z,74.93
2019-01-21T19:58:12.146Z,68.50
2019-01-21T20:00:42.235Z,76.13
2019-01-21T20:03:12.294Z,87.70
2019-01-21T20:05:42.520Z,79.73
2019-01-21T20:08:12.773Z,77.07
2019-01-21T20:10:42.922Z,66.67
2019-01-21T20:13:12.866Z,80.67
2019-01-21T20:15:42.903Z,77.50
2019-01-21T20:18:12.814Z,78.63
2019-01-21T20:20:43.083Z,69.47
2019-01-21T20:23:13.055Z,70.73
2019-01-21T20:25:43.040Z,81.43
2019-01-21T20:28:13.006Z,64.60
2019-01-21T20:30:43.131Z,72.27
2019-01-21T20:33:13.032Z,71.13
2019-01-21T20:35:43.036Z,72.00
2019-01-21T20:38:13.108Z,78.47
2019-01-21T20:40:43.133Z,74.23
2019-01-21T20:43:13.077Z,68.83
2019-01-21T20:45:43.263Z,68.17
2019-01-21T20:48:13.111Z,61.43
2019-01-21T20:50:43.384Z,90.60
2019-01-21T20:53:13.361Z,104.23
2019-01-21T20:55:43.405Z,72.40
2019-01-21T20:58:13.452Z,68.03
2019-01-21T21:00:43.833Z,69.90
2019-01-21T21:03:13.855Z,61.87
2019-01-21T21:05:43.834Z,73.53
2019-01-21T21:08:13.718Z,66.40
2019-01-21T21:10:43.719Z,71.37
2019-01-21T21:13:13.687Z,65.37
2019-01-21T21:15:43.656Z,70.00
2019-01-21T21:18:13.608Z,65.70
2019-01-21T21:20:43.509Z,72.53
2019-01-21T21:23:13.456Z,72.90
2019-01-21T21:25:43.475Z,62.10
2019-01-21T21:28:13.580Z,62.57
2019-01-21T21:30:43.501Z,65.37
2019-01-21T21:33:13.553Z,76.47
2019-01-21T21:35:43.520Z,74.63
2019-01-21T21:38:13.477Z,68.60
2019-01-21T21:40:43.347Z,67.03
2019-01-21T21:43:13.313Z,71.10
2019-01-21T21:45:43.264Z,78.53
2019-01-21T21:48:13.332Z,70.33
2019-01-21T21:50:43.183Z,66.80
2019-01-21T21:53:13.044Z,68.63
2019-01-21T21:55:42.928Z,67.60
2019-01-21T21:58:12.879Z,67.90
2019-01-21T22:00:42.877Z,74.80
2019-01-21T22:03:13.021Z,71.33
2019-01-21T22:05:42.925Z,79.73
2019-01-21T22:08:12.976Z,80.93
2019-01-21T22:10:42.871Z,73.73
2019-01-21T22:13:12.855Z,80.60
2019-01-21T22:15:42.937Z,66.83
2019-01-21T22:18:12.857Z,63.07
2019-01-21T22:20:42.832Z,72.50
2019-01-21T22:23:12.887Z,68.10
2019-01-21T22:25:42.844Z,67.00
2019-01-21T22:28:12.835Z,70.17
2019-01-21T22:30:42.675Z,63.70
2019-01-21T22:33:12.659Z,72.40
2019-01-21T22:35:42.530Z,72.20
2019-01-21T22:38:12.482Z,65.13
2019-01-21T22:40:42.450Z,74.00
2019-01-21T22:43:12.324Z,65.53
2019-01-21T22:45:42.580Z,65.00
2019-01-21T22:48:12.633Z,69.00
2019-01-21T22:50:42.649Z,79.30
2019-01-21T22:53:12.653Z,67.43
2019-01-21T22:55:42.716Z,66.77
2019-01-21T22:58:12.883Z,62.80
2019-01-21T23:01:06.859Z,67.80
2019-01-21T23:03:36.924Z,70.67
2019-01-21T23:06:07.186Z,64.63
2019-01-21T23:08:37.228Z,72.27
2019-01-21T23:11:07.167Z,73.40
2019-01-21T23:13:37.187Z,69.40
2019-01-21T23:16:07.150Z,58.83
2019-01-21T23:18:37.809Z,74.23
2019-01-21T23:21:07.738Z,64.07
2019-01-21T23:23:37.618Z,65.43
2019-01-21T23:26:07.536Z,59.87
2019-01-21T23:28:37.509Z,65.93
2019-01-21T23:31:07.676Z,71.90
2019-01-21T23:33:37.777Z,65.40
2019-01-21T23:36:07.825Z,63.43
2019-01-21T23:38:37.746Z,75.23
2019-01-21T23:41:07.648Z,78.50
2019-01-21T23:43:37.835Z,70.63
2019-01-21T23:46:07.893Z,61.00
2019-01-21T23:48:37.766Z,65.77
2019-01-21T23:51:07.755Z,75.27
2019-01-21T23:53:37.797Z,72.43
2019-01-21T23:56:08.095Z,68.43
2019-01-21T23:58:38.043Z,73.10
